Rafha, Saudi Arabia
Current Conditions -  °F | °C
As of 5:00 AM on Saturday 29 Nov 2014 (Local Time) from OERF Reporting Station
Clear Clear  
Wind Chill: 46°   Ceiling: Unl
Heat Index: 46°   Visibility: 6mi
Dew Point: 41°   Wind: 0mph
Humidity: 81%   Direction: NA
Pressure: 30.18"   Gusts: NA
Location:  29.63°N, 43.51°E
Report Text: OERF 290200Z 00000KT CAVOK 08/05 Q1022
Loading
Personal Weather Stations






























Interactive Weather Map New forecast layout! Learn more

10-Day Weather Forecast

Advertisements
Track Severe Weather on mobile